Time;durP1;ratioP1;P1;durP2;ratioP2;P2;SDS_P1;SDS_P2;PMS_P1;PMS_P2;Temp;Humidity;BMP_temperature;BMP_pressure;BME280_temperature;BME280_humidity;BME280_pressure;Samples;Min_cycle;Max_cycle;Signal;HPM_P1;HPM_P2
2021/12/20 00:00:52;;;;;;;5.70;2.70;;;;;;;2.22;79.59;98749.31;1812993;78;21015;-75
2021/12/20 00:03:19;;;;;;;4.72;2.35;;;;;;;2.21;79.53;98752.20;1794667;79;21154;-77
2021/12/20 00:05:47;;;;;;;6.20;2.65;;;;;;;2.22;79.40;98755.89;1809782;79;21448;-75
2021/12/20 00:08:14;;;;;;;4.60;2.27;;;;;;;2.24;79.35;98756.45;1813954;77;20987;-75
2021/12/20 00:10:42;;;;;;;4.87;2.30;;;;;;;2.29;79.28;98764.92;1795772;78;21043;-74
2021/12/20 00:13:10;;;;;;;4.90;2.10;;;;;;;2.32;79.08;98759.16;1786477;79;21111;-74
2021/12/20 00:15:37;;;;;;;4.47;2.05;;;;;;;2.34;78.80;98784.75;1811425;79;21014;-76
2021/12/20 00:18:05;;;;;;;4.87;2.27;;;;;;;2.37;78.58;98772.41;1789849;79;21047;-75
2021/12/20 00:20:33;;;;;;;4.95;2.58;;;;;;;2.41;78.46;98774.81;1799750;78;21531;-75
2021/12/20 00:23:00;;;;;;;3.55;1.80;;;;;;;2.44;78.28;98778.80;1800445;79;21134;-76
2021/12/20 00:25:26;;;;;;;5.62;2.20;;;;;;;2.47;78.22;98780.92;1816087;79;21537;-76
2021/12/20 00:27:53;;;;;;;4.30;2.15;;;;;;;2.51;78.09;98778.88;1815452;79;21082;-76
2021/12/20 00:30:22;;;;;;;4.95;2.12;;;;;;;2.54;77.71;98785.50;1808771;79;21094;-76
2021/12/20 00:32:49;;;;;;;4.45;2.12;;;;;;;2.57;77.60;98790.28;1784128;80;21085;-76
2021/12/20 00:35:18;;;;;;;4.42;1.95;;;;;;;2.61;77.46;98790.05;1814462;79;21019;-75
2021/12/20 00:40:30;;;;;;;4.37;1.90;;;;;;;2.67;77.01;98797.49;1787235;79;21015;-74
2021/12/20 00:43:01;;;;;;;4.58;1.98;;;;;;;2.70;76.87;98800.92;1783654;80;38865;-74
2021/12/20 00:45:31;;;;;;;3.90;1.72;;;;;;;2.72;76.66;98797.53;1783829;80;21074;-74
2021/12/20 00:47:59;;;;;;;3.70;1.40;;;;;;;2.71;76.49;98799.38;1797847;79;21406;-74
2021/12/20 00:50:26;;;;;;;2.70;1.30;;;;;;;2.65;76.28;98802.20;1809213;78;21241;-74
2021/12/20 00:52:53;;;;;;;2.70;0.95;;;;;;;2.59;76.06;98809.25;1792186;78;21031;-74
2021/12/20 00:55:21;;;;;;;2.42;0.68;;;;;;;2.49;75.91;98813.89;1811394;79;21070;-73
2021/12/20 00:57:50;;;;;;;1.20;0.55;;;;;;;2.38;76.20;98823.27;1803920;78;21046;-75
2021/12/20 01:00:20;;;;;;;1.17;0.60;;;;;;;2.21;76.62;98813.58;1780327;79;21562;-75
2021/12/20 01:02:47;;;;;;;1.10;0.50;;;;;;;2.05;77.04;98814.42;1782495;78;21118;-74
2021/12/20 01:05:15;;;;;;;1.32;0.45;;;;;;;1.94;77.56;98818.77;1808508;78;21277;-75
2021/12/20 01:07:42;;;;;;;1.92;0.50;;;;;;;1.86;77.96;98813.91;1787565;79;21517;-75
2021/12/20 01:10:09;;;;;;;1.22;0.50;;;;;;;1.79;78.46;98806.70;1816378;79;21007;-75
2021/12/20 01:12:47;;;;;;;1.15;0.60;;;;;;;1.78;78.83;98803.80;1824702;78;21499;-74
2021/12/20 01:15:17;;;;;;;1.87;0.85;;;;;;;1.75;79.37;98799.02;1816521;79;21117;-75
2021/12/20 01:17:43;;;;;;;2.80;1.12;;;;;;;1.69;79.87;98800.78;1816900;79;21023;-75
2021/12/20 01:20:11;;;;;;;2.60;1.00;;;;;;;1.69;80.18;98798.67;1784482;79;21125;-74
2021/12/20 01:22:37;;;;;;;2.62;1.00;;;;;;;1.68;80.43;98802.31;1804536;78;21019;-76
2021/12/20 01:25:05;;;;;;;1.27;0.80;;;;;;;1.71;80.70;98813.68;1813480;78;21475;-75
2021/12/20 01:27:32;;;;;;;3.00;1.67;;;;;;;1.72;80.69;98796.87;1807126;78;21577;-74
2021/12/20 01:29:59;;;;;;;3.40;1.60;;;;;;;1.72;80.81;98799.50;1811647;78;21051;-75
2021/12/20 01:32:27;;;;;;;4.42;2.35;;;;;;;1.71;80.86;98805.30;1804395;79;21083;-75
2021/12/20 01:34:53;;;;;;;4.47;2.45;;;;;;;1.70;81.02;98805.52;1787949;80;21062;-75
2021/12/20 01:37:20;;;;;;;3.45;1.30;;;;;;;1.66;81.08;98807.05;1814432;79;22143;-76
2021/12/20 01:39:47;;;;;;;4.22;1.60;;;;;;;1.66;81.16;98812.30;1813920;79;21012;-76
2021/12/20 01:42:20;;;;;;;2.87;1.65;;;;;;;1.64;81.28;98811.22;1800646;79;21565;-75
2021/12/20 01:44:49;;;;;;;2.98;1.92;;;;;;;1.66;81.42;98816.25;1802451;79;22284;-75
2021/12/20 01:47:17;;;;;;;2.45;1.40;;;;;;;1.66;81.48;98808.36;1687731;79;9999612;-76
2021/12/20 01:50:00;;;;;;;2.02;1.02;;;;;;;1.68;81.51;98808.89;1802867;78;21078;-75
2021/12/20 01:52:15;;;;;;;3.12;1.47;;;;;;;1.68;81.54;98819.42;1788354;78;21030;-77
2021/12/20 01:54:41;;;;;;;2.05;1.10;;;;;;;1.71;81.59;98810.55;1800597;79;21031;-77
2021/12/20 01:57:08;;;;;;;3.52;1.52;;;;;;;1.72;81.55;98810.83;1813593;79;21074;-77
2021/12/20 01:59:40;;;;;;;3.08;1.37;;;;;;;1.73;81.54;98802.41;1789331;79;21135;-75
2021/12/20 02:02:07;;;;;;;3.08;1.57;;;;;;;1.73;81.54;98803.20;1794524;79;21026;-77
2021/12/20 02:04:43;;;;;;;2.52;1.40;;;;;;;1.73;81.42;98800.56;1805487;79;21055;-78
2021/12/20 02:07:02;;;;;;;2.80;1.30;;;;;;;1.74;81.17;98797.41;1793650;78;21351;-77
2021/12/20 02:09:30;;;;;;;3.75;1.90;;;;;;;1.75;81.09;98802.97;1794131;79;21509;-77
2021/12/20 02:11:57;;;;;;;4.22;2.40;;;;;;;1.75;80.82;98798.50;1804915;79;21162;-76
2021/12/20 02:14:24;;;;;;;3.25;1.60;;;;;;;1.77;80.42;98796.92;1785270;78;21031;-77
2021/12/20 02:16:51;;;;;;;3.35;1.32;;;;;;;1.78;80.23;98797.22;1763150;78;21692;-75
2021/12/20 02:19:18;;;;;;;4.30;1.92;;;;;;;1.78;79.85;98795.38;1791585;79;21042;-78
2021/12/20 02:21:46;;;;;;;2.67;1.47;;;;;;;1.80;79.77;98803.02;1804446;78;21077;-78
2021/12/20 02:24:13;;;;;;;2.67;1.27;;;;;;;1.81;79.55;98804.61;1819356;78;21083;-79
2021/12/20 02:26:40;;;;;;;2.62;1.45;;;;;;;1.83;79.44;98807.28;1780343;80;21012;-78
2021/12/20 02:29:09;;;;;;;4.28;1.98;;;;;;;1.88;79.22;98813.16;1772037;79;21145;-79
2021/12/20 02:37:27;;;;;;;3.33;1.55;;;;;;;1.81;78.38;98821.22;1789257;78;21928;-76
2021/12/20 02:39:47;;;;;;;3.62;1.65;;;;;;;1.77;78.13;98813.51;1775643;80;21034;-75
2021/12/20 02:42:18;;;;;;;3.20;1.52;;;;;;;1.76;78.12;98822.98;1794210;78;21402;-75
2021/12/20 02:44:58;;;;;;;3.87;1.67;;;;;;;1.76;78.11;98831.66;1772234;80;21039;-75
2021/12/20 02:47:28;;;;;;;3.40;1.60;;;;;;;1.77;78.06;98831.14;1768218;80;21054;-76
2021/12/20 02:49:47;;;;;;;3.17;1.50;;;;;;;1.78;78.10;98821.70;1786075;79;21090;-76
2021/12/20 02:52:13;;;;;;;2.45;1.40;;;;;;;1.81;77.96;98820.41;1799183;78;21041;-75
2021/12/20 02:54:42;;;;;;;3.00;1.50;;;;;;;1.85;77.83;98829.44;1763675;80;21109;-75
2021/12/20 02:57:08;;;;;;;2.70;1.60;;;;;;;1.82;77.68;98829.39;1778734;79;21086;-76
2021/12/20 02:59:35;;;;;;;3.35;1.57;;;;;;;1.85;77.75;98830.22;1780340;80;21560;-76
2021/12/20 03:02:06;;;;;;;2.72;1.40;;;;;;;1.81;77.46;98817.27;1779114;80;21216;-75
2021/12/20 03:04:33;;;;;;;3.90;1.65;;;;;;;1.83;77.30;98836.23;1775163;78;21026;-76
2021/12/20 03:07:04;;;;;;;3.90;1.65;;;;;;;1.85;77.29;98827.59;1783875;79;21038;-74
2021/12/20 03:09:36;;;;;;;4.53;2.10;;;;;;;1.88;77.04;98826.31;1772284;79;21042;-74
2021/12/20 03:12:05;;;;;;;3.90;2.00;;;;;;;1.91;77.01;98827.15;1763259;79;21141;-74
2021/12/20 03:14:38;;;;;;;5.75;2.58;;;;;;;1.93;77.01;98829.52;1783296;80;21105;-74
2021/12/20 03:17:03;;;;;;;3.98;2.00;;;;;;;1.94;77.00;98830.62;1761515;80;21086;-75
2021/12/20 03:19:30;;;;;;;2.55;1.30;;;;;;;1.98;76.97;98833.56;1783767;80;21065;-74
2021/12/20 03:21:57;;;;;;;3.60;1.55;;;;;;;2.01;76.86;98833.87;1779143;80;21072;-75
2021/12/20 03:24:25;;;;;;;3.30;1.40;;;;;;;2.02;76.82;98832.82;1767471;79;21078;-74
2021/12/20 03:26:52;;;;;;;3.25;1.32;;;;;;;2.05;76.70;98836.81;1764991;80;21533;-74
2021/12/20 03:29:19;;;;;;;2.37;1.35;;;;;;;2.07;76.67;98838.16;1794814;80;20960;-74
2021/12/20 03:31:45;;;;;;;4.12;1.87;;;;;;;2.06;76.37;98835.23;1795537;80;21081;-74
2021/12/20 03:34:12;;;;;;;5.65;2.90;;;;;;;2.06;76.29;98833.92;1795316;79;21105;-74
2021/12/20 03:36:38;;;;;;;6.08;2.27;;;;;;;2.07;76.37;98822.86;1794833;79;21034;-75
2021/12/20 03:39:06;;;;;;;7.20;3.30;;;;;;;2.06;76.27;98841.03;1795586;79;21556;-73
2021/12/20 03:41:33;;;;;;;4.95;2.20;;;;;;;2.07;76.29;98834.71;1795090;80;20998;-73
2021/12/20 03:44:00;;;;;;;5.33;2.05;;;;;;;2.04;76.06;98836.02;1795485;80;21121;-74
2021/12/20 03:46:27;;;;;;;4.30;1.87;;;;;;;2.03;76.01;98838.35;1795465;80;21035;-74
2021/12/20 03:48:54;;;;;;;3.10;1.50;;;;;;;2.04;75.91;98832.56;1795492;80;20948;-75
2021/12/20 03:51:20;;;;;;;2.98;1.32;;;;;;;2.04;75.89;98825.48;1795295;80;21144;-73
2021/12/20 03:53:47;;;;;;;3.80;1.50;;;;;;;2.06;75.79;98833.92;1795348;80;20956;-74
2021/12/20 03:56:14;;;;;;;2.45;1.40;;;;;;;2.04;75.51;98841.78;1795356;80;20983;-74
2021/12/20 03:58:41;;;;;;;2.67;1.35;;;;;;;2.05;75.57;98848.66;1795369;80;21125;-75
2021/12/20 04:01:10;;;;;;;3.80;1.42;;;;;;;2.05;75.54;98848.66;1795399;80;21058;-74
2021/12/20 04:03:38;;;;;;;3.05;1.37;;;;;;;2.06;75.50;98842.34;1795199;80;21132;-74
2021/12/20 04:06:09;;;;;;;3.60;1.30;;;;;;;2.06;75.37;98847.09;1795449;79;21475;-75
2021/12/20 04:08:35;;;;;;;2.70;1.42;;;;;;;2.05;75.29;98849.45;1795244;80;21144;-75
2021/12/20 04:11:02;;;;;;;3.40;1.60;;;;;;;2.06;75.37;98851.04;1795279;80;21054;-73
2021/12/20 04:13:29;;;;;;;3.50;1.60;;;;;;;2.04;75.46;98855.77;1795372;79;21648;-74
2021/12/20 04:15:56;;;;;;;3.45;1.47;;;;;;;2.05;75.84;98865.78;1795520;80;21085;-74
2021/12/20 04:18:24;;;;;;;3.08;1.42;;;;;;;2.02;76.58;98859.16;1795328;80;21003;-74
2021/12/20 04:20:50;;;;;;;3.10;1.47;;;;;;;2.02;77.03;98863.10;1795556;80;21079;-74
2021/12/20 04:23:17;;;;;;;3.75;2.00;;;;;;;2.00;77.21;98866.48;1795173;80;20999;-74
2021/12/20 04:25:45;;;;;;;3.83;1.70;;;;;;;1.99;77.42;98864.90;1795511;79;20956;-74
2021/12/20 04:28:12;;;;;;;4.95;2.55;;;;;;;1.93;77.60;98875.08;1795221;80;21555;-75
2021/12/20 04:30:39;;;;;;;3.45;2.10;;;;;;;1.92;77.75;98878.76;1795491;80;20951;-74
2021/12/20 04:33:06;;;;;;;4.35;2.35;;;;;;;1.91;77.88;98877.17;1795162;79;21078;-73
2021/12/20 04:35:33;;;;;;;4.05;2.02;;;;;;;1.91;77.88;98873.22;1795345;79;21011;-75
2021/12/20 04:38:01;;;;;;;3.25;1.60;;;;;;;1.89;77.88;98876.61;1795341;79;21125;-74
2021/12/20 04:40:28;;;;;;;3.12;1.50;;;;;;;1.86;77.93;98875.77;1795383;79;21984;-75
2021/12/20 04:42:58;;;;;;;3.47;1.40;;;;;;;1.87;77.91;98881.30;1795339;80;20943;-74
2021/12/20 04:45:26;;;;;;;2.42;1.47;;;;;;;1.86;77.82;98888.94;1795532;80;20933;-74
2021/12/20 04:47:52;;;;;;;2.27;1.25;;;;;;;1.85;77.71;98876.30;1795560;80;21475;-74
2021/12/20 04:50:19;;;;;;;3.42;1.60;;;;;;;1.83;77.75;98890.20;1795502;80;20979;-75
2021/12/20 04:52:46;;;;;;;2.95;1.45;;;;;;;1.81;77.87;98882.27;1795192;79;21960;-74
2021/12/20 04:55:13;;;;;;;4.45;2.05;;;;;;;1.77;78.02;98896.42;1795358;80;21074;-74
2021/12/20 04:57:42;;;;;;;2.95;1.57;;;;;;;1.73;78.34;98881.36;1795245;80;20987;-73
2021/12/20 05:00:13;;;;;;;3.20;1.62;;;;;;;1.70;78.50;98891.05;1776004;80;21058;-73
2021/12/20 05:02:40;;;;;;;2.85;1.45;;;;;;;1.69;78.60;98890.78;1771877;80;21082;-73
2021/12/20 05:05:09;;;;;;;2.25;1.20;;;;;;;1.62;78.56;98882.52;1777498;80;21306;-74
2021/12/20 05:07:38;;;;;;;2.40;1.30;;;;;;;1.54;78.53;98880.27;1788423;80;21506;-75
2021/12/20 05:10:12;;;;;;;2.80;1.67;;;;;;;1.51;78.59;98887.85;1764154;81;21006;-75
2021/12/20 05:12:40;;;;;;;4.00;1.55;;;;;;;1.46;78.71;98885.16;1766233;80;21526;-74
2021/12/20 05:15:08;;;;;;;3.22;1.40;;;;;;;1.43;78.79;98890.37;1795651;79;21133;-72
2021/12/20 05:17:36;;;;;;;2.37;1.40;;;;;;;1.39;78.94;98886.63;1795576;80;21111;-74
2021/12/20 05:20:05;;;;;;;2.67;1.50;;;;;;;1.39;79.07;98899.25;1795473;79;20987;-74
2021/12/20 05:22:31;;;;;;;4.25;1.55;;;;;;;1.39;79.12;98899.78;1795258;80;21014;-74
2021/12/20 05:24:58;;;;;;;4.45;2.10;;;;;;;1.34;79.23;98898.36;1794438;80;21002;-74
2021/12/20 05:27:26;;;;;;;4.37;2.00;;;;;;;1.31;79.35;98901.46;1795804;80;20944;-74
2021/12/20 05:29:54;;;;;;;3.55;1.85;;;;;;;1.29;79.60;98900.39;1795460;80;21110;-74
2021/12/20 05:32:21;;;;;;;5.40;2.40;;;;;;;1.30;79.74;98902.50;1794999;80;21145;-74
2021/12/20 05:34:47;;;;;;;3.20;1.85;;;;;;;1.28;79.91;98900.09;1795303;79;20999;-74
2021/12/20 05:37:16;;;;;;;4.75;2.10;;;;;;;1.26;80.03;98912.70;1795522;80;21038;-74
2021/12/20 05:39:43;;;;;;;3.47;1.70;;;;;;;1.25;80.21;98908.98;1795544;80;20939;-74
2021/12/20 05:42:09;;;;;;;4.33;1.85;;;;;;;1.23;80.29;98907.12;1795238;80;21084;-74
2021/12/20 05:44:36;;;;;;;3.70;1.80;;;;;;;1.24;80.32;98916.08;1795831;80;21093;-73
2021/12/20 05:47:03;;;;;;;3.75;1.72;;;;;;;1.27;80.37;98921.39;1795251;80;21565;-73
2021/12/20 05:49:31;;;;;;;4.10;1.70;;;;;;;1.28;80.37;98923.77;1795686;80;21062;-73
2021/12/20 05:52:03;;;;;;;3.37;1.70;;;;;;;1.32;80.30;98928.06;1795380;80;21074;-74
2021/12/20 05:54:30;;;;;;;3.05;1.70;;;;;;;1.35;80.20;98933.65;1795912;80;21735;-74
2021/12/20 05:56:57;;;;;;;3.15;1.70;;;;;;;1.40;80.03;98931.61;1795171;80;21254;-73
2021/12/20 05:59:24;;;;;;;3.77;1.77;;;;;;;1.45;79.77;98931.72;1795757;80;21050;-73
2021/12/20 06:01:50;;;;;;;3.33;1.75;;;;;;;1.49;79.55;98932.03;1795363;80;20995;-74
2021/12/20 06:04:17;;;;;;;4.42;1.95;;;;;;;1.54;79.38;98932.90;1795632;80;21039;-74
2021/12/20 06:06:43;;;;;;;4.08;1.47;;;;;;;1.60;79.02;98936.42;1795535;80;22052;-73
2021/12/20 06:09:10;;;;;;;3.35;1.90;;;;;;;1.68;78.90;98943.12;1795533;80;21471;-73
2021/12/20 06:11:37;;;;;;;3.62;1.95;;;;;;;1.76;78.46;98942.74;1795348;79;20999;-74
2021/12/20 06:14:04;;;;;;;3.60;1.67;;;;;;;1.83;78.21;98943.38;1796119;80;20947;-74
2021/12/20 06:16:32;;;;;;;2.95;1.62;;;;;;;1.91;77.84;98946.95;1769714;79;20995;-73
2021/12/20 06:18:59;;;;;;;5.28;1.80;;;;;;;1.94;77.37;98955.69;1764332;81;21103;-74
2021/12/20 06:21:26;;;;;;;3.27;1.72;;;;;;;1.97;77.18;98959.13;1763840;81;21460;-74
2021/12/20 06:23:52;;;;;;;3.62;1.70;;;;;;;1.99;76.87;98958.91;1764619;80;21510;-73
2021/12/20 06:26:23;;;;;;;4.37;2.00;;;;;;;2.02;76.81;98955.27;1766425;80;21011;-74
2021/12/20 06:28:48;;;;;;;3.90;1.90;;;;;;;2.07;76.66;98960.62;1791345;80;20944;-74
2021/12/20 06:31:15;;;;;;;4.90;2.30;;;;;;;2.10;76.31;98954.06;1795241;80;21124;-73
2021/12/20 06:33:42;;;;;;;3.35;1.80;;;;;;;2.13;76.25;98957.53;1794957;80;21039;-73
2021/12/20 06:36:09;;;;;;;3.60;1.60;;;;;;;2.16;76.05;98963.64;1795782;80;21129;-74
2021/12/20 06:38:43;;;;;;;3.05;1.80;;;;;;;2.21;75.84;98957.66;1795352;80;20987;-74
2021/12/20 06:41:06;;;;;;;2.55;1.62;;;;;;;2.23;75.47;98970.05;1794489;80;21023;-73
2021/12/20 06:43:33;;;;;;;3.35;1.77;;;;;;;2.22;75.04;98959.25;1781738;80;22000;-74
2021/12/20 06:45:59;;;;;;;4.25;2.08;;;;;;;2.27;75.09;98969.84;1764004;81;20947;-74
2021/12/20 06:48:26;;;;;;;4.03;1.95;;;;;;;2.31;75.07;98968.34;1764199;81;21031;-74
2021/12/20 06:50:53;;;;;;;3.37;1.85;;;;;;;2.34;74.90;98971.81;1763978;81;20987;-74
2021/12/20 06:53:19;;;;;;;3.00;1.80;;;;;;;2.36;74.82;98969.72;1764017;81;21077;-74
2021/12/20 06:55:48;;;;;;;3.35;1.90;;;;;;;2.37;74.58;98975.78;1733824;81;21983;-73
2021/12/20 06:58:15;;;;;;;3.72;1.87;;;;;;;2.37;74.59;98977.09;1763728;81;21640;-75
2021/12/20 07:00:42;;;;;;;3.52;2.25;;;;;;;2.36;74.36;98976.30;1764001;81;20959;-74
2021/12/20 07:03:08;;;;;;;3.37;2.05;;;;;;;2.35;74.42;98980.78;1787167;80;20955;-75
2021/12/20 07:05:35;;;;;;;3.52;2.00;;;;;;;2.33;74.51;98988.12;1795557;80;21129;-73
2021/12/20 07:08:03;;;;;;;3.92;1.90;;;;;;;2.33;74.48;98989.95;1764402;80;21047;-74
2021/12/20 07:10:30;;;;;;;4.35;2.05;;;;;;;2.32;74.55;98986.53;1795383;79;21038;-74
2021/12/20 07:12:56;;;;;;;4.30;2.87;;;;;;;2.28;74.65;98989.38;1795689;79;21053;-73
2021/12/20 07:15:26;;;;;;;4.75;2.20;;;;;;;2.25;74.82;98993.81;1795353;80;21011;-74
2021/12/20 07:17:53;;;;;;;4.33;2.72;;;;;;;2.24;75.10;98994.06;1795376;80;21078;-75
2021/12/20 07:20:20;;;;;;;5.25;3.10;;;;;;;2.21;75.25;98990.59;1795467;79;21133;-74
2021/12/20 07:22:47;;;;;;;5.97;3.00;;;;;;;2.20;75.32;98987.13;1795362;80;20971;-74
2021/12/20 07:25:14;;;;;;;5.53;3.12;;;;;;;2.18;75.42;98992.39;1795404;80;20991;-74
2021/12/20 07:27:40;;;;;;;5.83;3.67;;;;;;;2.20;75.51;98998.19;1795346;79;21033;-74
2021/12/20 07:30:08;;;;;;;9.20;4.90;;;;;;;2.21;75.54;99002.45;1795497;80;20998;-74
2021/12/20 07:32:37;;;;;;;6.72;4.60;;;;;;;2.21;75.58;99002.45;1795168;79;20964;-74
2021/12/20 07:35:04;;;;;;;8.50;4.28;;;;;;;2.21;75.57;99000.60;1795522;79;21055;-74
2021/12/20 07:37:32;;;;;;;7.50;3.98;;;;;;;2.26;75.52;99010.41;1795349;80;21055;-74
2021/12/20 07:39:59;;;;;;;5.58;2.90;;;;;;;2.27;75.44;99008.05;1795756;80;20952;-74
2021/12/20 07:42:25;;;;;;;4.60;2.75;;;;;;;2.28;75.26;99007.02;1795284;80;20963;-74
2021/12/20 07:44:52;;;;;;;5.55;2.65;;;;;;;2.28;75.16;99009.14;1795659;79;21477;-74
2021/12/20 07:47:37;;;;;;;4.95;2.75;;;;;;;2.31;75.16;99015.77;1795305;80;20983;-74
2021/12/20 07:50:06;;;;;;;5.78;2.87;;;;;;;2.34;75.08;99013.45;1795665;80;20999;-74
2021/12/20 07:52:33;;;;;;;5.53;2.80;;;;;;;2.33;74.88;99018.94;1795277;80;21046;-73
2021/12/20 07:55:01;;;;;;;5.85;2.70;;;;;;;2.31;74.75;99023.67;1795923;80;21082;-75
2021/12/20 07:57:27;;;;;;;5.28;2.98;;;;;;;2.30;74.80;99033.41;1795075;80;21125;-74
2021/12/20 07:59:54;;;;;;;4.83;3.00;;;;;;;2.27;74.69;99033.89;1795362;79;20986;-73
2021/12/20 08:02:21;;;;;;;4.17;2.65;;;;;;;2.27;74.75;99039.16;1764496;79;21007;-74
2021/12/20 08:04:50;;;;;;;7.87;3.42;;;;;;;2.26;74.68;99037.55;1766516;79;21081;-74
2021/12/20 08:07:18;;;;;;;4.65;2.75;;;;;;;2.30;74.74;99040.00;1764380;80;20943;-73
2021/12/20 08:10:04;;;;;;;6.75;3.12;;;;;;;2.37;74.85;99041.16;1792314;80;20916;-73
2021/12/20 08:12:33;;;;;;;7.30;4.50;;;;;;;2.43;74.65;99035.42;1795156;80;21089;-73
2021/12/20 08:15:19;;;;;;;5.60;3.15;;;;;;;2.47;74.53;99037.36;1794569;80;20959;-73
2021/12/20 08:17:46;;;;;;;8.38;4.80;;;;;;;2.54;74.44;99034.55;1795184;80;21043;-73
2021/12/20 08:20:12;;;;;;;7.12;3.30;;;;;;;2.57;74.15;99054.64;1795618;79;21050;-73
2021/12/20 08:22:39;;;;;;;7.67;3.30;;;;;;;2.62;73.91;99041.24;1794982;80;21769;-73
2021/12/20 08:25:09;;;;;;;5.42;3.10;;;;;;;2.67;73.76;99036.06;1764340;79;20939;-73
2021/12/20 08:27:36;;;;;;;5.50;3.27;;;;;;;2.71;73.47;99034.53;1763916;81;21077;-73
2021/12/20 08:30:05;;;;;;;5.95;3.30;;;;;;;2.76;73.47;99037.22;1764040;80;21051;-73
2021/12/20 08:32:32;;;;;;;5.47;3.33;;;;;;;2.85;73.33;99035.77;1782090;80;21141;-73
2021/12/20 08:34:58;;;;;;;6.33;3.27;;;;;;;2.87;73.06;99040.29;1763837;81;21124;-73
2021/12/20 08:37:25;;;;;;;4.90;3.00;;;;;;;2.90;72.75;99036.38;1766586;80;20989;-73
2021/12/20 08:39:52;;;;;;;4.53;2.87;;;;;;;2.95;72.59;99055.67;1795494;80;20959;-74
2021/12/20 08:42:39;;;;;;;6.08;3.30;;;;;;;2.99;72.26;99037.00;1794844;80;20955;-73
2021/12/20 08:45:07;;;;;;;4.97;3.00;;;;;;;3.00;71.66;99050.48;1774857;80;21066;-73
2021/12/20 08:47:53;;;;;;;7.47;3.42;;;;;;;2.98;71.48;99047.80;1763844;81;21975;-73
2021/12/20 08:50:21;;;;;;;6.47;3.35;;;;;;;2.99;71.28;99048.08;1764247;81;20995;-73
2021/12/20 08:52:50;;;;;;;6.08;3.33;;;;;;;2.99;70.87;99044.12;1763620;81;20959;-73
2021/12/20 08:55:35;;;;;;;7.20;3.35;;;;;;;2.96;70.57;99040.16;1764134;81;21031;-73
2021/12/20 08:58:01;;;;;;;5.28;3.33;;;;;;;2.94;70.50;99047.50;1763971;81;21027;-73
2021/12/20 09:00:30;;;;;;;6.40;3.70;;;;;;;2.95;70.53;99049.61;1786690;79;21998;-73
2021/12/20 09:02:57;;;;;;;5.83;3.52;;;;;;;2.93;70.46;99054.31;1795268;80;20959;-74
2021/12/20 09:05:24;;;;;;;5.42;3.37;;;;;;;2.92;70.46;99056.16;1782253;80;21004;-74
2021/12/20 09:08:10;;;;;;;6.10;3.37;;;;;;;2.92;70.37;99052.20;1763997;81;21015;-74
2021/12/20 09:10:37;;;;;;;8.08;3.60;;;;;;;2.92;70.38;99050.09;1772286;80;21046;-73
2021/12/20 09:13:05;;;;;;;5.92;3.47;;;;;;;2.87;70.12;99055.31;1795481;80;21038;-72
2021/12/20 09:15:32;;;;;;;5.58;3.27;;;;;;;2.84;70.18;99057.12;1794786;79;21006;-73
2021/12/20 09:18:00;;;;;;;7.87;3.42;;;;;;;2.82;70.31;99061.30;1797342;79;20919;-73
2021/12/20 09:20:27;;;;;;;8.35;3.40;;;;;;;2.78;70.34;99058.35;1799076;80;20964;-76
2021/12/20 09:22:57;;;;;;;5.55;3.10;;;;;;;2.82;70.40;99057.34;1798441;80;20971;-74
2021/12/20 09:25:25;;;;;;;5.87;3.45;;;;;;;2.87;70.51;99060.59;1796983;79;21429;-73
2021/12/20 09:27:54;;;;;;;6.33;3.02;;;;;;;2.92;70.59;99058.80;1798260;80;21051;-73
2021/12/20 09:30:21;;;;;;;5.58;3.17;;;;;;;2.93;70.16;99057.78;1798641;79;20996;-74
2021/12/20 09:32:48;;;;;;;5.05;3.30;;;;;;;2.94;70.24;99059.89;1798617;80;21104;-73
2021/12/20 09:35:14;;;;;;;6.37;3.10;;;;;;;2.94;70.24;99052.77;1798792;79;21081;-74
2021/12/20 09:37:42;;;;;;;6.42;2.70;;;;;;;2.99;70.12;99058.63;1798976;80;21436;-72
2021/12/20 09:40:14;;;;;;;6.03;3.17;;;;;;;3.01;69.71;99046.00;1799037;80;21062;-73
2021/12/20 09:42:49;;;;;;;4.87;3.00;;;;;;;2.97;69.58;99052.28;1799046;79;21149;-73
2021/12/20 09:45:22;;;;;;;5.60;3.00;;;;;;;2.94;69.64;99055.41;1798666;77;20999;-73
2021/12/20 09:47:50;;;;;;;5.83;3.22;;;;;;;2.87;69.35;99057.95;1797037;80;20963;-74
2021/12/20 09:50:17;;;;;;;5.20;3.00;;;;;;;2.79;69.29;99051.23;1795862;80;21510;-74
2021/12/20 09:52:44;;;;;;;6.37;3.17;;;;;;;2.85;69.68;99060.81;1795279;80;20975;-73
2021/12/20 09:55:14;;;;;;;5.15;2.85;;;;;;;2.96;69.74;99063.89;1795690;80;20999;-75
2021/12/20 09:57:43;;;;;;;4.65;2.90;;;;;;;3.07;69.26;99060.06;1795528;80;21042;-75
2021/12/20 10:00:13;;;;;;;5.20;2.98;;;;;;;3.13;69.16;99059.09;1764219;81;21045;-74
2021/12/20 10:02:44;;;;;;;4.08;2.30;;;;;;;3.25;69.12;99055.27;1764476;79;21100;-74
2021/12/20 10:05:12;;;;;;;5.00;2.95;;;;;;;3.37;68.84;99049.08;1764440;81;21047;-74
2021/12/20 10:07:41;;;;;;;6.15;3.02;;;;;;;3.44;68.17;99055.75;1764543;79;21054;-73
2021/12/20 10:10:10;;;;;;;5.12;2.95;;;;;;;3.48;67.93;99058.17;1764499;81;21411;-73
2021/12/20 10:12:49;;;;;;;6.37;3.17;;;;;;;3.53;67.51;99058.24;1763967;81;21046;-73
2021/12/20 10:15:16;;;;;;;4.60;2.83;;;;;;;3.55;66.96;99065.90;1764486;81;21169;-73
2021/12/20 10:17:58;;;;;;;5.37;2.98;;;;;;;3.58;66.31;99073.33;1763938;81;20955;-73
2021/12/20 10:20:35;;;;;;;5.50;3.08;;;;;;;3.63;66.20;99062.83;1764486;81;20991;-73
2021/12/20 10:23:22;;;;;;;5.40;3.30;;;;;;;3.68;65.53;99060.76;1763848;81;21034;-72
2021/12/20 10:25:57;;;;;;;5.65;3.45;;;;;;;3.65;65.62;99066.04;1764432;81;21011;-73
2021/12/20 10:28:28;;;;;;;6.30;3.33;;;;;;;3.66;65.58;99068.16;1764077;79;21506;-74
2021/12/20 10:31:07;;;;;;;4.80;3.30;;;;;;;3.66;65.70;99063.66;1764145;81;21062;-74
2021/12/20 10:33:34;;;;;;;5.92;3.33;;;;;;;3.66;65.45;99067.62;1763560;79;21722;-73
2021/12/20 10:36:06;;;;;;;5.58;3.00;;;;;;;3.66;65.45;99066.30;1764040;81;21537;-73
2021/12/20 10:38:41;;;;;;;5.22;2.98;;;;;;;3.66;65.16;99074.22;1763932;80;21561;-73
2021/12/20 10:41:22;;;;;;;6.05;3.20;;;;;;;3.62;64.87;99061.75;1764427;81;21121;-74
2021/12/20 10:43:53;;;;;;;7.30;3.20;;;;;;;3.52;64.32;99063.75;1763697;81;21049;-73
2021/12/20 10:46:28;;;;;;;4.65;3.33;;;;;;;3.45;64.44;99066.58;1764361;79;21501;-73
2021/12/20 10:49:11;;;;;;;5.97;3.12;;;;;;;3.43;64.46;99067.37;1764046;81;21015;-73
2021/12/20 10:51:40;;;;;;;6.97;3.55;;;;;;;3.43;64.42;99063.94;1764047;79;21507;-73
2021/12/20 10:54:11;;;;;;;5.67;3.37;;;;;;;3.45;64.43;99070.54;1763990;81;21714;-73
2021/12/20 10:56:55;;;;;;;6.08;3.20;;;;;;;3.47;64.61;99065.82;1765330;79;21070;-74
2021/12/20 10:59:24;;;;;;;6.28;3.52;;;;;;;3.50;64.76;99069.81;1795423;80;21031;-73
2021/12/20 11:04:47;;;;;;;5.97;3.15;;;;;;;3.51;64.82;99076.68;1795611;79;20995;-74
2021/12/20 11:09:41;;;;;;;6.62;3.42;;;;;;;3.43;64.47;99063.41;1795619;79;21137;-73
2021/12/20 11:12:11;;;;;;;4.97;2.98;;;;;;;3.43;64.69;99071.85;1786408;79;21490;-73
2021/12/20 11:14:41;;;;;;;4.40;2.42;;;;;;;3.42;64.49;99073.70;1661558;79;10000588;-73
2021/12/20 11:17:10;;;;;;;4.97;2.50;;;;;;;3.43;64.29;99071.33;1594783;82;10000368;-74
2021/12/20 11:19:39;;;;;;;5.95;2.80;;;;;;;3.42;64.07;99071.55;1727235;81;21112;-73
2021/12/20 11:22:18;;;;;;;6.25;2.95;;;;;;;3.39;64.02;99072.05;1790487;78;21666;-73
2021/12/20 11:24:58;;;;;;;4.92;2.90;;;;;;;3.35;63.97;99073.06;1782820;80;21331;-73
2021/12/20 11:27:31;;;;;;;4.95;2.67;;;;;;;3.32;63.86;99074.87;1790718;77;21114;-73
2021/12/20 11:30:01;;;;;;;5.85;2.77;;;;;;;3.30;64.00;99078.30;1788702;80;21921;-73
2021/12/20 11:32:29;;;;;;;6.83;3.02;;;;;;;3.25;63.95;99075.58;1785601;78;21003;-74
2021/12/20 11:34:57;;;;;;;6.72;3.37;;;;;;;3.23;64.11;99084.28;1785042;78;21074;-71
2021/12/20 11:37:27;;;;;;;5.53;3.30;;;;;;;3.20;64.18;99080.28;1778091;78;21077;-76
2021/12/20 11:39:55;;;;;;;7.33;3.22;;;;;;;3.18;64.23;99085.52;1760076;81;21105;-82
2021/12/20 11:42:22;;;;;;;6.58;3.25;;;;;;;3.19;64.32;99089.74;1761910;78;21115;-83
2021/12/20 11:44:55;;;;;;;6.25;3.62;;;;;;;3.17;64.23;99097.12;1787685;80;21141;-82
2021/12/20 11:47:54;;;;;;;6.58;3.70;;;;;;;3.19;64.25;99095.02;1791326;75;21537;-80
2021/12/20 11:50:25;;;;;;;5.87;3.10;;;;;;;3.22;64.07;99092.69;1854403;75;21699;-78
2021/12/20 11:52:52;;;;;;;5.50;2.83;;;;;;;3.28;63.94;99096.20;1852832;77;21519;-78
2021/12/20 11:55:25;;;;;;;5.30;2.50;;;;;;;3.34;63.62;99100.50;1831690;77;21066;-80
2021/12/20 11:57:58;;;;;;;4.40;2.37;;;;;;;3.35;63.24;99103.41;1845639;77;21576;-79
2021/12/20 12:00:39;;;;;;;4.55;2.27;;;;;;;3.34;62.86;99099.19;1864323;77;21057;-81
2021/12/20 12:03:26;;;;;;;4.37;2.30;;;;;;;3.32;62.43;99094.66;1864650;77;21564;-79